Time;durP1;ratioP1;P1;durP2;ratioP2;P2;SDS_P1;SDS_P2;PMS_P1;PMS_P2;Temp;Humidity;BMP_temperature;BMP_pressure;BME280_temperature;BME280_humidity;BME280_pressure;Samples;Min_cycle;Max_cycle;Signal;HPM_P1;HPM_P2
2022/10/15 00:02:48;;;;;;;13.27;12.20;;;;;;;12.93;100.00;99328.94;10589868;28;20035;-71
2022/10/15 00:07:49;;;;;;;12.85;11.93;;;;;;;12.88;100.00;99330.03;10588823;28;20036;-71
2022/10/15 00:12:51;;;;;;;13.55;12.35;;;;;;;12.92;100.00;99328.06;10589889;28;20051;-71
2022/10/15 00:17:52;;;;;;;15.02;13.90;;;;;;;12.76;100.00;99311.34;10589339;28;20416;-71
2022/10/15 00:22:54;;;;;;;13.50;12.20;;;;;;;12.92;100.00;99314.88;10589915;28;20070;-70
2022/10/15 00:27:56;;;;;;;14.15;12.93;;;;;;;12.97;100.00;99325.19;10588015;28;20055;-71
2022/10/15 00:32:59;;;;;;;14.60;13.50;;;;;;;12.88;100.00;99315.97;10552284;28;20502;-70
2022/10/15 00:38:01;;;;;;;14.63;13.63;;;;;;;12.74;100.00;99310.56;10569916;28;20043;-71
2022/10/15 00:43:08;;;;;;;14.38;13.18;;;;;;;12.59;100.00;99305.16;10569692;28;20039;-70
2022/10/15 00:48:09;;;;;;;14.38;13.07;;;;;;;12.72;100.00;99304.53;10586828;28;20493;-70
2022/10/15 00:53:11;;;;;;;15.05;13.90;;;;;;;12.74;100.00;99307.94;10552071;28;20051;-70
2022/10/15 00:58:16;;;;;;;13.43;12.45;;;;;;;12.59;100.00;99302.53;10587805;28;20071;-70
2022/10/15 01:03:19;;;;;;;15.25;14.20;;;;;;;12.67;100.00;99291.59;10586470;28;20480;-71
2022/10/15 01:08:20;;;;;;;14.27;13.18;;;;;;;12.73;100.00;99286.00;10586210;28;20501;-70
2022/10/15 01:13:36;;;;;;;13.60;12.50;;;;;;;12.59;100.00;99283.22;10585069;28;20048;-71
2022/10/15 01:18:50;;;;;;;13.57;12.65;;;;;;;12.53;100.00;99275.66;10567439;28;20051;-70
2022/10/15 01:24:12;;;;;;;13.93;12.90;;;;;;;12.43;100.00;99282.31;10583979;28;20055;-70
2022/10/15 01:29:17;;;;;;;13.60;12.60;;;;;;;12.42;100.00;99278.81;10584709;28;20114;-70
2022/10/15 01:34:26;;;;;;;14.30;13.07;;;;;;;12.51;100.00;99270.44;10586035;28;20046;-70
2022/10/15 01:39:34;;;;;;;15.13;14.05;;;;;;;12.44;100.00;99268.19;10586111;28;20070;-71
2022/10/15 01:44:43;;;;;;;14.57;13.38;;;;;;;12.46;100.00;99267.19;10586417;28;20370;-70
2022/10/15 01:50:00;;;;;;;15.30;14.30;;;;;;;12.68;100.00;99260.81;10567037;28;20035;-71
2022/10/15 01:55:07;;;;;;;14.65;13.18;;;;;;;12.75;100.00;99254.25;10567615;28;20047;-72
2022/10/15 02:00:11;;;;;;;15.33;14.13;;;;;;;12.53;100.00;99250.13;10567021;28;20051;-71
2022/10/15 02:05:19;;;;;;;14.45;13.38;;;;;;;12.53;100.00;99254.56;10584015;28;20480;-71
2022/10/15 02:10:52;;;;;;;15.65;14.32;;;;;;;12.57;100.00;99253.44;10565764;28;20050;-70
2022/10/15 02:16:03;;;;;;;16.55;15.30;;;;;;;12.65;100.00;99250.41;10583593;28;20043;-71
2022/10/15 02:21:13;;;;;;;15.52;14.50;;;;;;;12.53;100.00;99247.50;10566355;28;20577;-71
2022/10/15 02:26:16;;;;;;;15.18;14.18;;;;;;;12.58;100.00;99236.72;10582464;28;20146;-70
2022/10/15 02:31:19;;;;;;;15.60;14.60;;;;;;;12.65;100.00;99224.03;10583824;28;20504;-70
2022/10/15 02:36:21;;;;;;;16.85;15.43;;;;;;;12.85;100.00;99222.03;10583201;28;20039;-70
2022/10/15 02:41:26;;;;;;;17.30;16.00;;;;;;;12.67;100.00;99215.13;10582272;28;20044;-71
2022/10/15 02:46:28;;;;;;;17.33;15.68;;;;;;;12.70;100.00;99214.94;10581289;28;20093;-70
2022/10/15 02:51:34;;;;;;;16.63;15.18;;;;;;;12.60;100.00;99204.03;10581593;28;20500;-70
2022/10/15 02:56:38;;;;;;;16.30;15.03;;;;;;;12.58;100.00;99219.09;10589079;28;20040;-70
2022/10/15 03:01:40;;;;;;;15.88;14.77;;;;;;;12.48;100.00;99202.03;10590311;28;20055;-70
2022/10/15 03:06:43;;;;;;;15.38;14.27;;;;;;;12.53;100.00;99202.69;10589324;28;20043;-70
2022/10/15 03:11:45;;;;;;;16.00;14.88;;;;;;;12.61;100.00;99192.56;10589854;28;20528;-70
2022/10/15 03:16:47;;;;;;;16.45;15.35;;;;;;;12.53;100.00;99197.41;10591040;28;20527;-71
2022/10/15 03:21:50;;;;;;;15.85;14.82;;;;;;;12.76;100.00;99195.31;10589368;28;20044;-71
2022/10/15 03:26:52;;;;;;;16.50;15.30;;;;;;;12.66;100.00;99194.09;10572762;28;20071;-71
2022/10/15 03:31:54;;;;;;;15.68;14.55;;;;;;;12.45;100.00;99196.97;10590360;28;20039;-70
2022/10/15 03:36:56;;;;;;;16.25;15.25;;;;;;;12.53;100.00;99193.94;10589206;28;20435;-69
2022/10/15 03:41:58;;;;;;;17.40;16.15;;;;;;;12.52;100.00;99195.69;10589743;28;20039;-69
2022/10/15 03:47:07;;;;;;;18.27;16.30;;;;;;;12.51;100.00;99190.50;10589426;28;20136;-69
2022/10/15 03:52:17;;;;;;;17.88;16.58;;;;;;;12.41;100.00;99189.28;10587600;28;20154;-71
2022/10/15 03:57:20;;;;;;;17.08;15.98;;;;;;;12.75;100.00;99188.31;10587274;28;20039;-69
2022/10/15 04:02:31;;;;;;;16.63;15.43;;;;;;;12.67;100.00;99187.91;10587410;28;20043;-70
2022/10/15 04:07:33;;;;;;;17.83;16.58;;;;;;;12.57;100.00;99196.31;10571598;28;20416;-70
2022/10/15 04:12:35;;;;;;;16.67;15.57;;;;;;;12.62;100.00;99193.44;10570446;28;20040;-70
2022/10/15 04:17:37;;;;;;;18.38;16.80;;;;;;;12.60;100.00;99201.41;10551909;22;20119;-71
2022/10/15 04:22:38;;;;;;;16.30;15.02;;;;;;;12.67;100.00;99191.41;10372906;28;20121;-71
2022/10/15 04:27:41;;;;;;;18.17;16.98;;;;;;;12.65;100.00;99197.66;10371623;28;20048;-71
2022/10/15 04:32:50;;;;;;;16.15;15.05;;;;;;;12.67;100.00;99191.41;10371458;28;20096;-71
2022/10/15 04:37:52;;;;;;;16.50;15.30;;;;;;;12.59;100.00;99193.59;10371343;28;20141;-71
2022/10/15 04:42:54;;;;;;;18.33;17.13;;;;;;;12.73;100.00;99190.22;10355080;28;20050;-71
2022/10/15 04:47:56;;;;;;;17.15;16.02;;;;;;;12.64;100.00;99186.28;10370863;28;20042;-71
2022/10/15 04:52:58;;;;;;;16.95;15.85;;;;;;;12.54;100.00;99171.91;10371004;28;20038;-71
2022/10/15 04:58:02;;;;;;;17.90;16.58;;;;;;;12.49;100.00;99171.28;10371107;28;20046;-71
2022/10/15 05:03:05;;;;;;;17.25;16.15;;;;;;;12.57;100.00;99176.97;10370541;28;20049;-71
2022/10/15 05:08:28;;;;;;;17.00;15.68;;;;;;;12.42;100.00;99178.66;10371860;28;20068;-71
2022/10/15 05:13:43;;;;;;;17.23;16.10;;;;;;;12.44;100.00;99182.09;10371734;28;20060;-71
2022/10/15 05:18:47;;;;;;;17.10;15.75;;;;;;;12.50;100.00;99197.56;10388061;28;20405;-71
2022/10/15 05:23:49;;;;;;;16.70;15.50;;;;;;;12.43;100.00;99192.69;10413070;28;20037;-71
2022/10/15 05:29:11;;;;;;;15.52;14.25;;;;;;;12.50;100.00;99183.53;10467698;28;20050;-71
2022/10/15 05:34:12;;;;;;;15.73;14.50;;;;;;;12.47;100.00;99188.97;10394090;28;20422;-71
2022/10/15 05:39:20;;;;;;;15.43;14.23;;;;;;;12.35;100.00;99185.19;10479913;28;20042;-71
2022/10/15 05:44:22;;;;;;;16.15;14.75;;;;;;;12.48;100.00;99185.38;10411958;28;20037;-71
2022/10/15 05:49:23;;;;;;;15.30;14.20;;;;;;;12.30;100.00;99184.56;10410803;28;20049;-71
2022/10/15 05:54:34;;;;;;;14.95;13.90;;;;;;;12.38;100.00;99185.03;10464410;28;20041;-71
2022/10/15 05:59:36;;;;;;;14.90;13.82;;;;;;;12.52;100.00;99189.56;10411833;28;20466;-71
2022/10/15 06:04:37;;;;;;;14.68;13.77;;;;;;;12.45;100.00;99183.78;10410847;28;20033;-71
2022/10/15 06:09:39;;;;;;;14.95;13.93;;;;;;;12.45;100.00;99183.78;10410560;28;20098;-70
2022/10/15 06:14:40;;;;;;;16.42;15.13;;;;;;;12.53;100.00;99186.88;10411050;28;20082;-70
2022/10/15 06:19:42;;;;;;;15.10;14.07;;;;;;;12.51;100.00;99187.88;10410230;28;20042;-70
2022/10/15 06:24:44;;;;;;;16.25;15.15;;;;;;;12.53;100.00;99188.66;10410798;28;20383;-70
2022/10/15 06:29:46;;;;;;;14.68;13.65;;;;;;;12.60;100.00;99204.03;10478284;28;20049;-71
2022/10/15 06:34:48;;;;;;;15.40;14.02;;;;;;;12.68;100.00;99213.34;10479049;28;20555;-71
2022/10/15 06:39:50;;;;;;;14.18;13.25;;;;;;;12.72;100.00;99212.25;10410911;28;20045;-71
2022/10/15 06:44:51;;;;;;;14.25;13.27;;;;;;;12.87;100.00;99216.69;10410512;28;20037;-71
2022/10/15 06:49:53;;;;;;;14.15;13.25;;;;;;;12.88;100.00;99224.53;10409832;28;20444;-71
2022/10/15 06:54:54;;;;;;;13.80;12.80;;;;;;;12.96;100.00;99217.97;10409632;28;20128;-71
2022/10/15 06:59:56;;;;;;;14.30;13.18;;;;;;;13.01;100.00;99227.31;10477959;28;20057;-71
2022/10/15 07:04:57;;;;;;;17.83;16.63;;;;;;;12.99;100.00;99233.63;10409301;28;20069;-71
2022/10/15 07:09:59;;;;;;;13.35;12.27;;;;;;;13.12;100.00;99227.59;10409649;28;20128;-71
2022/10/15 07:15:01;;;;;;;14.73;13.65;;;;;;;13.11;100.00;99235.63;10409505;28;20046;-71
2022/10/15 07:20:03;;;;;;;12.85;11.93;;;;;;;13.24;100.00;99238.47;10409073;28;20124;-71
2022/10/15 07:25:04;;;;;;;13.45;12.45;;;;;;;13.12;100.00;99229.41;10409298;28;20065;-71
2022/10/15 07:30:07;;;;;;;12.10;11.10;;;;;;;13.43;100.00;99228.56;10410536;28;20050;-71
2022/10/15 07:35:09;;;;;;;13.40;12.48;;;;;;;13.66;100.00;99234.34;10460475;28;20053;-72
2022/10/15 07:40:11;;;;;;;11.38;10.52;;;;;;;13.83;100.00;99224.50;10411078;28;20045;-71
2022/10/15 07:45:13;;;;;;;11.73;10.93;;;;;;;13.96;100.00;99237.00;10397789;28;20041;-70
2022/10/15 07:50:15;;;;;;;11.05;10.25;;;;;;;14.24;100.00;99233.56;10415562;28;20041;-70
2022/10/15 07:55:18;;;;;;;10.27;9.57;;;;;;;14.38;100.00;99230.94;10415067;28;20451;-71
2022/10/15 08:00:19;;;;;;;10.75;9.75;;;;;;;14.31;100.00;99245.50;10396896;28;20094;-71
2022/10/15 08:05:21;;;;;;;8.90;8.30;;;;;;;14.48;100.00;99253.31;10463544;28;20041;-70
2022/10/15 08:10:23;;;;;;;9.20;8.60;;;;;;;14.16;100.00;99255.16;10384623;28;20111;-71
2022/10/15 08:15:24;;;;;;;8.27;7.72;;;;;;;14.33;100.00;99254.19;10482966;28;20065;-71
2022/10/15 08:20:26;;;;;;;8.88;8.27;;;;;;;14.62;100.00;99253.31;10414906;28;20105;-70
2022/10/15 08:25:27;;;;;;;7.72;7.22;;;;;;;14.79;100.00;99260.22;10454790;28;20166;-71
2022/10/15 08:30:29;;;;;;;8.20;7.70;;;;;;;14.79;100.00;99262.88;10440512;28;20061;-71
2022/10/15 08:35:34;;;;;;;8.57;7.97;;;;;;;14.93;100.00;99256.72;10373642;28;20441;-71
2022/10/15 08:40:36;;;;;;;8.05;7.32;;;;;;;15.03;100.00;99257.00;10373422;28;20124;-70
2022/10/15 08:45:43;;;;;;;7.07;6.68;;;;;;;14.94;100.00;99266.38;10441919;28;20133;-72
2022/10/15 08:51:01;;;;;;;7.82;7.32;;;;;;;14.97;100.00;99275.91;10373218;28;20046;-71
2022/10/15 08:56:11;;;;;;;7.28;6.68;;;;;;;14.91;100.00;99277.13;10372765;28;20060;-72
2022/10/15 09:01:17;;;;;;;6.70;6.25;;;;;;;14.96;100.00;99267.09;10412595;28;20091;-72
2022/10/15 09:06:29;;;;;;;7.05;6.63;;;;;;;15.00;100.00;99273.91;10480869;28;20423;-70
2022/10/15 09:11:50;;;;;;;5.78;5.38;;;;;;;15.06;100.00;99275.34;10412856;28;20116;-72
2022/10/15 09:16:51;;;;;;;6.32;5.70;;;;;;;15.19;100.00;99275.44;10396544;28;20049;-72
2022/10/15 09:21:54;;;;;;;6.07;5.68;;;;;;;15.41;100.00;99278.44;10412056;28;20090;-71
2022/10/15 09:27:07;;;;;;;5.78;5.40;;;;;;;15.43;100.00;99295.06;10411627;28;20102;-71
2022/10/15 09:32:32;;;;;;;5.28;4.93;;;;;;;15.55;100.00;99288.97;10412311;28;20098;-72
2022/10/15 09:37:47;;;;;;;4.20;3.90;;;;;;;15.54;100.00;99299.69;10411387;28;20125;-71
2022/10/15 09:42:50;;;;;;;4.30;4.00;;;;;;;15.74;100.00;99295.78;10412557;28;20073;-71
2022/10/15 09:47:58;;;;;;;3.70;3.45;;;;;;;15.92;100.00;99304.31;10411973;28;20064;-71
2022/10/15 09:53:25;;;;;;;3.85;3.63;;;;;;;16.15;100.00;99309.81;10411429;28;20443;-70
2022/10/15 09:58:55;;;;;;;3.75;3.45;;;;;;;16.47;96.99;99308.59;10411283;28;20090;-72
2022/10/15 10:04:20;;;;;;;2.95;2.75;;;;;;;16.62;95.41;99311.06;10468526;28;20100;-71
2022/10/15 10:09:37;;;;;;;3.72;3.42;;;;;;;16.49;96.21;99304.91;10410804;28;20048;-69
2022/10/15 10:14:45;;;;;;;3.03;2.83;;;;;;;16.70;95.08;99323.00;10478495;28;20037;-70
2022/10/15 10:20:23;;;;;;;3.05;2.85;;;;;;;16.32;97.47;99316.66;10506150;22;20503;-72
2022/10/15 10:25:33;;;;;;;3.90;3.60;;;;;;;16.03;98.22;99325.69;10453653;28;20087;-72
2022/10/15 10:30:37;;;;;;;4.47;3.45;;;;;;;16.43;97.62;99326.56;10453794;28;20060;-73
2022/10/15 10:35:49;;;;;;;3.45;3.25;;;;;;;16.42;100.00;99318.69;10458033;28;20049;-73
2022/10/15 10:41:05;;;;;;;5.60;4.50;;;;;;;16.61;96.52;99324.47;10455508;28;20049;-72
2022/10/15 10:46:13;;;;;;;3.10;2.90;;;;;;;16.52;95.25;99325.94;10453188;28;20096;-71
2022/10/15 10:51:23;;;;;;;4.10;3.85;;;;;;;16.60;96.67;99315.66;10453293;28;20490;-72
2022/10/15 10:56:34;;;;;;;4.30;3.90;;;;;;;16.83;96.34;99315.91;10445086;28;20119;-72
2022/10/15 11:01:55;;;;;;;3.67;3.38;;;;;;;17.06;97.15;99312.50;10523993;28;20044;-73
2022/10/15 11:07:40;;;;;;;1.73;0.85;;;;;;;17.12;94.96;99309.41;10489021;28;20048;-72
2022/10/15 11:12:55;;;;;;;1.55;0.68;;;;;;;17.20;91.98;99316.00;10530473;28;20037;-71
2022/10/15 11:18:25;;;;;;;0.57;0.55;;;;;;;17.21;91.29;99317.69;10532577;28;20094;-72
2022/10/15 11:24:04;;;;;;;0.95;0.50;;;;;;;17.23;90.63;99321.94;10531004;28;20040;-72
2022/10/15 11:29:09;;;;;;;0.60;0.60;;;;;;;17.21;90.87;99328.31;10543105;28;20414;-72
2022/10/15 11:34:46;;;;;;;0.40;0.40;;;;;;;17.47;90.65;99314.03;10525572;28;20040;-72
2022/10/15 11:40:25;;;;;;;0.43;0.43;;;;;;;18.03;85.87;99317.06;10547389;28;20105;-72
2022/10/15 11:45:52;;;;;;;0.43;0.30;;;;;;;18.23;83.45;99323.56;10504973;28;20073;-71
2022/10/15 11:51:05;;;;;;;0.38;0.38;;;;;;;18.23;86.91;99326.22;10516213;28;20087;-72
2022/10/15 11:56:25;;;;;;;2.35;2.15;;;;;;;18.50;85.52;99325.09;10546897;28;20035;-72
2022/10/15 12:01:40;;;;;;;0.75;0.40;;;;;;;18.80;82.85;99320.13;10546264;28;20040;-72
2022/10/15 12:06:48;;;;;;;1.58;0.68;;;;;;;19.16;80.76;99315.56;10483626;28;20044;-72
2022/10/15 12:11:54;;;;;;;1.30;0.20;;;;;;;19.37;77.33;99327.19;10546254;28;20040;-71
2022/10/15 12:17:07;;;;;;;0.68;0.30;;;;;;;19.30;76.91;99325.13;10545804;28;20059;-70
2022/10/15 12:22:38;;;;;;;0.20;0.20;;;;;;;19.00;76.10;99326.59;10545603;28;20121;-70
2022/10/15 12:27:40;;;;;;;0.63;0.28;;;;;;;18.83;77.99;99327.91;10542632;28;20046;-71
2022/10/15 12:32:47;;;;;;;0.45;0.20;;;;;;;18.82;78.42;99328.03;10526850;28;20109;-71
2022/10/15 12:37:49;;;;;;;1.08;0.30;;;;;;;18.64;78.81;99325.78;10544524;28;20405;-71
2022/10/15 12:43:02;;;;;;;0.22;0.22;;;;;;;18.61;79.05;99333.97;10544486;28;20044;-71
2022/10/15 12:48:06;;;;;;;0.30;0.30;;;;;;;18.68;79.56;99342.34;10544369;28;20105;-71
2022/10/15 12:53:27;;;;;;;0.98;0.20;;;;;;;18.55;79.86;99326.47;10545710;28;20404;-71
2022/10/15 12:58:38;;;;;;;1.88;0.38;;;;;;;18.49;81.01;99331.41;10545781;28;20119;-72
2022/10/15 13:03:49;;;;;;;0.57;0.50;;;;;;;18.84;77.50;99320.75;10537293;28;20032;-71
2022/10/15 13:08:57;;;;;;;0.30;0.20;;;;;;;18.82;78.22;99309.38;10527925;28;20403;-71
2022/10/15 13:14:02;;;;;;;0.30;0.20;;;;;;;18.85;77.14;99298.47;10544794;28;20036;-71
2022/10/15 13:19:04;;;;;;;0.77;0.45;;;;;;;19.01;76.65;99298.97;10544771;28;20412;-70
2022/10/15 13:24:10;;;;;;;0.65;0.15;;;;;;;19.05;74.40;99291.59;10543887;28;20378;-70
2022/10/15 13:29:21;;;;;;;0.20;0.20;;;;;;;18.91;73.91;99290.03;10545562;28;20051;-71
2022/10/15 13:34:31;;;;;;;0.28;0.28;;;;;;;18.81;76.93;99303.19;10544885;28;20505;-71
2022/10/15 13:39:38;;;;;;;1.65;0.25;;;;;;;18.88;73.87;99298.25;10543256;28;20047;-71
2022/10/15 13:44:41;;;;;;;0.40;0.28;;;;;;;18.81;73.85;99308.50;10526289;28;20044;-72
2022/10/15 13:49:43;;;;;;;0.13;0.13;;;;;;;18.71;73.76;99309.34;10544437;28;20055;-71
2022/10/15 13:54:45;;;;;;;0.95;0.20;;;;;;;18.54;75.40;99307.94;10543506;28;20059;-71
2022/10/15 13:59:47;;;;;;;0.30;0.30;;;;;;;18.50;74.74;99311.78;10524964;28;20055;-71
2022/10/15 14:04:49;;;;;;;0.70;0.30;;;;;;;18.47;75.04;99309.38;10543334;28;20036;-71
2022/10/15 14:09:51;;;;;;;0.65;0.50;;;;;;;18.66;75.09;99329.16;10542872;28;20118;-71
2022/10/15 14:14:52;;;;;;;0.38;0.38;;;;;;;18.57;76.00;99316.53;10542617;28;20067;-71
2022/10/15 14:19:56;;;;;;;0.50;0.50;;;;;;;18.42;77.03;99323.03;10543155;28;20044;-71
2022/10/15 14:25:23;;;;;;;0.43;0.43;;;;;;;18.40;77.22;99328.47;10524612;28;20394;-71
2022/10/15 14:30:35;;;;;;;0.50;0.50;;;;;;;18.59;77.73;99330.59;10543371;28;20097;-71
2022/10/15 14:35:37;;;;;;;0.30;0.30;;;;;;;18.47;77.28;99331.53;10543738;28;20036;-70
2022/10/15 14:40:39;;;;;;;0.40;0.40;;;;;;;18.27;78.96;99333.00;10542048;28;20056;-71
2022/10/15 14:45:49;;;;;;;0.40;0.30;;;;;;;18.35;77.12;99340.41;10542080;28;20094;-71
2022/10/15 14:50:52;;;;;;;0.38;0.32;;;;;;;18.32;77.27;99341.47;10540453;28;20391;-71
2022/10/15 14:56:00;;;;;;;1.00;0.38;;;;;;;18.34;76.57;99342.25;10541691;28;20036;-71
2022/10/15 15:01:05;;;;;;;0.30;0.30;;;;;;;18.11;78.02;99333.31;10541414;28;20390;-71
2022/10/15 15:06:08;;;;;;;0.93;0.40;;;;;;;17.88;80.82;99335.00;10524177;28;20517;-71
2022/10/15 15:11:13;;;;;;;0.77;0.40;;;;;;;17.80;82.33;99325.91;10540802;28;20056;-71
2022/10/15 15:16:16;;;;;;;0.93;0.60;;;;;;;17.62;83.06;99328.03;10522925;28;20055;-71
2022/10/15 15:21:21;;;;;;;1.25;1.15;;;;;;;17.45;84.60;99333.72;10540563;28;20551;-71
2022/10/15 15:26:23;;;;;;;2.97;1.15;;;;;;;17.47;84.88;99337.94;10522185;28;20073;-72
2022/10/15 15:31:25;;;;;;;0.90;0.90;;;;;;;17.30;86.95;99346.25;10539877;28;20551;-72
2022/10/15 15:36:26;;;;;;;1.20;1.10;;;;;;;17.12;88.53;99346.59;10541133;28;20052;-70
2022/10/15 15:41:28;;;;;;;1.10;1.00;;;;;;;16.87;89.93;99350.09;10539875;28;20489;-71
2022/10/15 15:46:30;;;;;;;1.75;0.98;;;;;;;16.79;90.23;99365.69;10539820;28;20036;-71
2022/10/15 15:51:31;;;;;;;4.45;0.90;;;;;;;16.65;92.44;99379.03;10539848;28;20097;-71
2022/10/15 15:56:33;;;;;;;0.82;0.75;;;;;;;16.58;92.41;99381.22;10540635;28;20386;-71
2022/10/15 16:01:35;;;;;;;2.30;0.98;;;;;;;16.50;94.73;99386.19;10544015;28;20560;-71
2022/10/15 16:06:38;;;;;;;1.55;0.80;;;;;;;16.36;95.60;99389.75;10529458;28;20052;-71
2022/10/15 16:11:39;;;;;;;1.83;1.13;;;;;;;16.21;96.02;99381.97;10547942;28;20036;-71
2022/10/15 16:16:41;;;;;;;1.33;1.00;;;;;;;16.19;94.16;99381.19;10547028;28;20379;-71
2022/10/15 16:21:43;;;;;;;1.85;1.73;;;;;;;16.00;94.25;99387.69;10524927;22;20098;-72
2022/10/15 16:26:45;;;;;;;2.67;2.47;;;;;;;15.74;95.42;99389.34;10504591;28;20078;-72
2022/10/15 16:31:46;;;;;;;2.80;2.60;;;;;;;15.53;96.51;99394.16;10505601;28;20071;-72
2022/10/15 16:36:48;;;;;;;3.28;2.97;;;;;;;15.33;97.94;99413.09;10504849;28;20044;-72
2022/10/15 16:41:50;;;;;;;3.20;2.85;;;;;;;15.32;99.66;99414.91;10504568;28;20044;-72
2022/10/15 16:46:51;;;;;;;11.23;10.32;;;;;;;15.32;100.00;99420.19;10503546;28;20508;-72
2022/10/15 16:51:53;;;;;;;60.42;46.05;;;;;;;15.11;100.00;99419.69;10503654;28;20052;-71
2022/10/15 16:56:54;;;;;;;6.88;6.28;;;;;;;15.35;100.00;99424.44;10503697;28;20043;-71
2022/10/15 17:01:56;;;;;;;5.57;5.18;;;;;;;15.19;100.00;99421.03;10485619;28;20040;-72
2022/10/15 17:06:58;;;;;;;5.95;5.55;;;;;;;14.91;100.00;99432.41;10503395;28;20045;-72
2022/10/15 17:11:59;;;;;;;7.05;6.55;;;;;;;14.71;100.00;99438.88;10503109;28;20037;-72
2022/10/15 17:17:01;;;;;;;6.40;5.82;;;;;;;14.59;100.00;99443.06;10501694;28;20159;-72
2022/10/15 17:22:03;;;;;;;5.28;4.88;;;;;;;14.64;100.00;99447.16;10501964;28;20040;-72
2022/10/15 17:27:04;;;;;;;5.13;4.72;;;;;;;14.53;100.00;99461.97;10483463;28;20044;-72
2022/10/15 17:32:06;;;;;;;4.43;4.03;;;;;;;14.54;100.00;99471.59;10483789;28;20049;-70
2022/10/15 17:37:08;;;;;;;5.38;4.88;;;;;;;14.47;100.00;99470.19;10501116;28;20498;-71
2022/10/15 17:42:11;;;;;;;5.13;4.72;;;;;;;14.38;100.00;99480.34;10501149;28;20473;-72
2022/10/15 17:47:13;;;;;;;5.60;5.18;;;;;;;14.11;100.00;99474.81;10500763;28;20074;-72
2022/10/15 17:52:15;;;;;;;5.85;5.45;;;;;;;13.96;100.00;99474.81;10500350;28;20048;-72
2022/10/15 17:57:16;;;;;;;4.97;4.57;;;;;;;14.17;100.00;99476.28;10465946;28;20056;-71
2022/10/15 18:02:18;;;;;;;5.05;4.55;;;;;;;14.31;100.00;99486.94;10481468;28;20056;-72
2022/10/15 18:07:21;;;;;;;3.60;3.20;;;;;;;14.16;100.00;99498.34;10499596;28;20115;-71
2022/10/15 18:12:23;;;;;;;32.20;29.23;;;;;;;13.93;100.00;99504.88;10482855;28;20052;-71
2022/10/15 18:17:25;;;;;;;33.28;30.42;;;;;;;13.93;100.00;99502.22;10499471;28;20037;-71
2022/10/15 18:22:28;;;;;;;15.95;14.75;;;;;;;13.58;100.00;99506.75;10499491;28;20045;-71
2022/10/15 18:27:30;;;;;;;9.25;8.57;;;;;;;13.29;100.00;99506.50;10483016;28;20381;-71
2022/10/15 18:32:33;;;;;;;8.43;7.32;;;;;;;13.40;100.00;99499.78;10480938;28;20045;-71
2022/10/15 18:37:39;;;;;;;9.18;8.57;;;;;;;13.28;100.00;99510.06;10499459;28;20040;-71
2022/10/15 18:42:41;;;;;;;7.13;6.50;;;;;;;13.32;100.00;99516.03;10499225;28;20127;-71
2022/10/15 18:47:53;;;;;;;7.10;6.57;;;;;;;13.17;100.00;99519.41;10480823;28;20475;-71
2022/10/15 18:52:54;;;;;;;6.80;6.32;;;;;;;12.99;100.00;99524.69;10498029;28;20103;-72
2022/10/15 18:57:56;;;;;;;9.57;6.00;;;;;;;13.27;100.00;99532.09;10498394;28;20044;-71
2022/10/15 19:02:58;;;;;;;7.40;6.82;;;;;;;13.07;100.00;99529.59;10498726;28;20083;-71
2022/10/15 19:08:02;;;;;;;7.63;7.00;;;;;;;12.96;100.00;99535.38;10498173;28;20045;-71
2022/10/15 19:13:04;;;;;;;7.88;7.28;;;;;;;12.80;100.00;99531.81;10498260;28;20516;-72
2022/10/15 19:18:09;;;;;;;8.55;7.95;;;;;;;12.56;100.00;99525.91;10497844;28;20410;-72
2022/10/15 19:23:11;;;;;;;7.63;7.03;;;;;;;12.70;100.00;99535.81;10479816;28;20048;-72
2022/10/15 19:28:13;;;;;;;10.43;9.65;;;;;;;13.04;100.00;99530.59;10497969;28;20041;-71
2022/10/15 19:33:17;;;;;;;22.23;20.63;;;;;;;13.03;100.00;99538.59;10497733;28;20032;-71
2022/10/15 19:38:19;;;;;;;21.75;19.52;;;;;;;12.74;100.00;99534.72;10503472;28;20048;-71
2022/10/15 19:43:22;;;;;;;19.23;17.92;;;;;;;12.52;100.00;99541.03;10505691;28;20406;-71
2022/10/15 19:48:24;;;;;;;16.77;15.57;;;;;;;12.65;100.00;99549.22;10505378;28;20094;-71
2022/10/15 19:53:25;;;;;;;12.75;11.85;;;;;;;12.65;100.00;99543.09;10504991;28;20076;-71
2022/10/15 19:58:28;;;;;;;10.70;9.52;;;;;;;12.67;100.00;99550.00;10504971;28;20048;-72
2022/10/15 20:03:29;;;;;;;8.85;8.07;;;;;;;12.68;100.00;99558.75;10505236;28;20520;-72
2022/10/15 20:08:35;;;;;;;8.68;7.97;;;;;;;12.50;100.00;99560.50;10487304;28;20056;-72
2022/10/15 20:13:37;;;;;;;11.40;10.60;;;;;;;12.57;100.00;99569.81;10504853;28;20047;-71
2022/10/15 20:18:40;;;;;;;9.05;8.35;;;;;;;12.43;100.00;99573.09;10503958;28;20524;-71
2022/10/15 20:23:43;;;;;;;9.57;7.10;;;;;;;12.46;100.00;99582.66;10485507;28;20102;-72
2022/10/15 20:28:45;;;;;;;10.38;9.63;;;;;;;12.56;100.00;99584.78;10503496;28;20047;-72
2022/10/15 20:33:47;;;;;;;9.77;9.07;;;;;;;12.50;100.00;99585.06;10504366;28;20048;-71
2022/10/15 20:38:48;;;;;;;7.45;6.95;;;;;;;12.65;100.00;99598.47;10503423;28;20041;-71
2022/10/15 20:43:53;;;;;;;6.97;6.53;;;;;;;12.48;100.00;99608.00;10503055;28;20051;-71
2022/10/15 20:48:56;;;;;;;7.00;6.50;;;;;;;12.47;100.00;99613.34;10502235;28;20041;-71
2022/10/15 20:53:58;;;;;;;6.78;6.35;;;;;;;12.48;100.00;99621.19;10504141;28;20591;-71
2022/10/15 20:59:02;;;;;;;7.45;6.85;;;;;;;12.62;100.00;99631.97;10503650;28;20036;-72
2022/10/15 21:04:04;;;;;;;8.45;7.85;;;;;;;12.79;100.00;99623.28;10485876;28;20413;-71
2022/10/15 21:09:06;;;;;;;8.65;8.05;;;;;;;12.96;100.00;99626.88;10504077;28;20045;-71
2022/10/15 21:14:10;;;;;;;17.70;16.40;;;;;;;12.79;100.00;99617.09;10504130;28;20044;-72
2022/10/15 21:19:12;;;;;;;14.23;13.23;;;;;;;12.66;100.00;99635.31;10502813;28;20102;-71
2022/10/15 21:24:14;;;;;;;13.98;12.88;;;;;;;12.61;100.00;99637.28;10502208;28;20090;-71
2022/10/15 21:29:16;;;;;;;12.77;11.88;;;;;;;12.61;100.00;99651.31;10501978;28;20447;-71
2022/10/15 21:34:21;;;;;;;11.35;10.55;;;;;;;12.77;100.00;99637.44;10501409;28;20072;-71
2022/10/15 21:39:23;;;;;;;11.50;10.70;;;;;;;12.66;100.00;99645.88;10501237;28;20045;-71
2022/10/15 21:44:25;;;;;;;10.25;9.55;;;;;;;12.68;100.00;99643.16;10500585;28;20098;-71
2022/10/15 21:49:26;;;;;;;9.10;8.50;;;;;;;12.76;100.00;99643.66;10500614;28;20091;-70
2022/10/15 21:54:28;;;;;;;10.05;9.10;;;;;;;12.75;100.00;99642.81;10500509;28;20098;-70
2022/10/15 21:59:29;;;;;;;8.55;7.90;;;;;;;12.74;100.00;99648.97;10502322;28;20036;-72
2022/10/15 22:04:33;;;;;;;9.23;8.57;;;;;;;12.87;100.00;99657.19;10502077;28;20481;-72
2022/10/15 22:09:35;;;;;;;9.35;8.30;;;;;;;12.90;100.00;99666.75;10500589;28;20063;-71
2022/10/15 22:14:37;;;;;;;9.70;9.00;;;;;;;13.06;100.00;99662.47;10481888;28;20556;-71
2022/10/15 22:19:38;;;;;;;10.30;9.50;;;;;;;13.20;100.00;99670.56;10499609;28;20067;-71
2022/10/15 22:24:40;;;;;;;8.68;7.97;;;;;;;13.16;100.00;99660.22;10499917;28;20075;-71
2022/10/15 22:29:42;;;;;;;10.23;9.48;;;;;;;12.98;100.00;99659.31;10499769;28;20040;-71
2022/10/15 22:34:44;;;;;;;9.85;9.15;;;;;;;12.78;100.00;99671.66;10499807;28;20131;-71
2022/10/15 22:39:46;;;;;;;9.38;8.77;;;;;;;12.76;100.00;99670.03;10499768;28;20037;-71
2022/10/15 22:44:47;;;;;;;10.45;9.75;;;;;;;12.60;100.00;99670.72;10499396;28;20049;-72
2022/10/15 22:49:49;;;;;;;11.68;10.75;;;;;;;12.56;100.00;99679.69;10498785;28;20514;-71
2022/10/15 22:54:50;;;;;;;11.23;10.43;;;;;;;12.52;100.00;99687.81;10498671;28;20049;-71
2022/10/15 22:59:52;;;;;;;10.73;9.88;;;;;;;12.83;100.00;99697.81;10501730;28;20048;-71
2022/10/15 23:04:59;;;;;;;10.63;9.93;;;;;;;12.68;100.00;99698.53;10499492;28;20055;-71
2022/10/15 23:10:00;;;;;;;14.45;13.27;;;;;;;12.98;100.00;99688.34;10499944;28;20040;-71
2022/10/15 23:15:03;;;;;;;15.60;14.00;;;;;;;12.65;100.00;99681.06;10507528;28;20048;-71